sensor_id;sensor_type;location;lat;lon;timestamp;P1;durP1;ratioP1;P2;durP2;ratioP2
27163;SDS011;14685;50.618;7.024;2023-03-01T00:01:31;13.30;;;9.50;;
27163;SDS011;14685;50.618;7.024;2023-03-01T00:03:58;14.02;;;8.50;;
27163;SDS011;14685;50.618;7.024;2023-03-01T00:06:26;14.50;;;9.40;;
27163;SDS011;14685;50.618;7.024;2023-03-01T00:08:55;27.67;;;14.05;;
27163;SDS011;14685;50.618;7.024;2023-03-01T00:11:27;12.60;;;9.38;;
27163;SDS011;14685;50.618;7.024;2023-03-01T00:13:57;9.85;;;6.50;;
27163;SDS011;14685;50.618;7.024;2023-03-01T00:16:29;15.38;;;9.57;;
27163;SDS011;14685;50.618;7.024;2023-03-01T00:19:00;16.13;;;9.07;;
27163;SDS011;14685;50.618;7.024;2023-03-01T00:21:28;18.75;;;9.95;;
27163;SDS011;14685;50.618;7.024;2023-03-01T00:23:56;16.33;;;10.48;;
27163;SDS011;14685;50.618;7.024;2023-03-01T00:26:24;15.48;;;9.95;;
27163;SDS011;14685;50.618;7.024;2023-03-01T00:28:52;20.58;;;11.40;;
27163;SDS011;14685;50.618;7.024;2023-03-01T00:31:21;19.40;;;10.93;;
27163;SDS011;14685;50.618;7.024;2023-03-01T00:33:53;15.98;;;10.65;;
27163;SDS011;14685;50.618;7.024;2023-03-01T00:36:24;16.35;;;9.90;;
27163;SDS011;14685;50.618;7.024;2023-03-01T00:39:01;18.25;;;11.30;;
27163;SDS011;14685;50.618;7.024;2023-03-01T00:41:30;23.30;;;13.32;;
27163;SDS011;14685;50.618;7.024;2023-03-01T00:43:57;22.13;;;12.60;;
27163;SDS011;14685;50.618;7.024;2023-03-01T00:46:25;17.30;;;10.95;;
27163;SDS011;14685;50.618;7.024;2023-03-01T00:48:53;17.33;;;10.75;;
27163;SDS011;14685;50.618;7.024;2023-03-01T00:51:23;16.20;;;10.80;;
27163;SDS011;14685;50.618;7.024;2023-03-01T00:53:53;18.25;;;10.45;;
27163;SDS011;14685;50.618;7.024;2023-03-01T00:56:21;15.98;;;10.90;;
27163;SDS011;14685;50.618;7.024;2023-03-01T00:58:48;17.95;;;11.65;;
27163;SDS011;14685;50.618;7.024;2023-03-01T01:01:17;17.17;;;10.85;;
27163;SDS011;14685;50.618;7.024;2023-03-01T01:04:04;16.25;;;11.00;;
27163;SDS011;14685;50.618;7.024;2023-03-01T01:06:43;17.38;;;10.57;;
27163;SDS011;14685;50.618;7.024;2023-03-01T01:09:12;17.90;;;11.20;;
27163;SDS011;14685;50.618;7.024;2023-03-01T01:11:45;17.85;;;11.23;;
27163;SDS011;14685;50.618;7.024;2023-03-01T01:14:14;16.52;;;10.80;;
27163;SDS011;14685;50.618;7.024;2023-03-01T01:16:42;18.55;;;11.35;;
27163;SDS011;14685;50.618;7.024;2023-03-01T01:19:13;15.20;;;10.52;;
27163;SDS011;14685;50.618;7.024;2023-03-01T01:21:41;16.42;;;10.82;;
27163;SDS011;14685;50.618;7.024;2023-03-01T01:24:09;14.07;;;10.18;;
27163;SDS011;14685;50.618;7.024;2023-03-01T01:26:38;13.82;;;8.98;;
27163;SDS011;14685;50.618;7.024;2023-03-01T01:29:05;16.90;;;11.20;;
27163;SDS011;14685;50.618;7.024;2023-03-01T01:31:33;18.05;;;11.80;;
27163;SDS011;14685;50.618;7.024;2023-03-01T01:34:03;15.15;;;10.32;;
27163;SDS011;14685;50.618;7.024;2023-03-01T01:36:33;14.65;;;9.63;;
27163;SDS011;14685;50.618;7.024;2023-03-01T01:39:01;14.13;;;9.13;;
27163;SDS011;14685;50.618;7.024;2023-03-01T01:41:28;12.13;;;8.52;;
27163;SDS011;14685;50.618;7.024;2023-03-01T01:44:09;14.00;;;9.23;;
27163;SDS011;14685;50.618;7.024;2023-03-01T01:46:57;10.48;;;8.55;;
27163;SDS011;14685;50.618;7.024;2023-03-01T01:49:31;12.60;;;8.90;;
27163;SDS011;14685;50.618;7.024;2023-03-01T01:52:21;15.00;;;9.30;;
27163;SDS011;14685;50.618;7.024;2023-03-01T01:54:56;13.27;;;9.05;;
27163;SDS011;14685;50.618;7.024;2023-03-01T01:57:36;12.55;;;7.68;;
27163;SDS011;14685;50.618;7.024;2023-03-01T02:00:13;14.85;;;9.30;;
27163;SDS011;14685;50.618;7.024;2023-03-01T02:02:45;13.48;;;9.95;;
27163;SDS011;14685;50.618;7.024;2023-03-01T02:05:18;15.15;;;9.52;;
27163;SDS011;14685;50.618;7.024;2023-03-01T02:07:49;12.30;;;8.65;;
27163;SDS011;14685;50.618;7.024;2023-03-01T02:10:16;14.27;;;9.50;;
27163;SDS011;14685;50.618;7.024;2023-03-01T02:12:44;12.13;;;9.07;;
27163;SDS011;14685;50.618;7.024;2023-03-01T02:15:12;15.30;;;9.40;;
27163;SDS011;14685;50.618;7.024;2023-03-01T02:17:40;12.15;;;9.15;;
27163;SDS011;14685;50.618;7.024;2023-03-01T02:20:18;12.50;;;9.07;;
27163;SDS011;14685;50.618;7.024;2023-03-01T02:22:53;12.02;;;8.82;;
27163;SDS011;14685;50.618;7.024;2023-03-01T02:28:37;16.88;;;10.57;;
27163;SDS011;14685;50.618;7.024;2023-03-01T02:31:06;13.15;;;9.18;;
27163;SDS011;14685;50.618;7.024;2023-03-01T02:33:54;14.07;;;10.48;;
27163;SDS011;14685;50.618;7.024;2023-03-01T02:36:23;11.57;;;8.98;;
27163;SDS011;14685;50.618;7.024;2023-03-01T02:38:57;14.52;;;10.20;;
27163;SDS011;14685;50.618;7.024;2023-03-01T02:41:27;12.25;;;9.40;;
27163;SDS011;14685;50.618;7.024;2023-03-01T02:43:57;12.48;;;8.95;;
27163;SDS011;14685;50.618;7.024;2023-03-01T02:46:25;16.52;;;9.90;;
27163;SDS011;14685;50.618;7.024;2023-03-01T02:48:54;12.25;;;8.93;;
27163;SDS011;14685;50.618;7.024;2023-03-01T02:51:25;13.35;;;9.65;;
27163;SDS011;14685;50.618;7.024;2023-03-01T02:54:17;12.88;;;9.43;;
27163;SDS011;14685;50.618;7.024;2023-03-01T02:56:48;11.73;;;8.73;;
27163;SDS011;14685;50.618;7.024;2023-03-01T02:59:22;13.90;;;8.98;;
27163;SDS011;14685;50.618;7.024;2023-03-01T03:01:54;11.40;;;8.30;;
27163;SDS011;14685;50.618;7.024;2023-03-01T03:04:21;12.23;;;9.02;;
27163;SDS011;14685;50.618;7.024;2023-03-01T03:06:49;13.88;;;9.30;;
27163;SDS011;14685;50.618;7.024;2023-03-01T03:09:18;13.10;;;9.32;;
27163;SDS011;14685;50.618;7.024;2023-03-01T03:11:46;12.27;;;9.68;;
27163;SDS011;14685;50.618;7.024;2023-03-01T03:14:16;14.45;;;9.40;;
27163;SDS011;14685;50.618;7.024;2023-03-01T03:16:47;13.55;;;9.23;;
27163;SDS011;14685;50.618;7.024;2023-03-01T03:19:16;15.13;;;9.20;;
27163;SDS011;14685;50.618;7.024;2023-03-01T03:21:45;14.63;;;9.23;;
27163;SDS011;14685;50.618;7.024;2023-03-01T03:24:13;13.30;;;8.98;;
27163;SDS011;14685;50.618;7.024;2023-03-01T03:26:40;13.48;;;9.20;;
27163;SDS011;14685;50.618;7.024;2023-03-01T03:29:07;13.30;;;9.52;;
27163;SDS011;14685;50.618;7.024;2023-03-01T03:31:34;13.80;;;9.18;;
27163;SDS011;14685;50.618;7.024;2023-03-01T03:34:03;14.23;;;10.35;;
27163;SDS011;14685;50.618;7.024;2023-03-01T03:36:29;13.73;;;9.57;;
27163;SDS011;14685;50.618;7.024;2023-03-01T03:38:57;14.70;;;9.35;;
27163;SDS011;14685;50.618;7.024;2023-03-01T03:41:24;13.60;;;10.02;;
27163;SDS011;14685;50.618;7.024;2023-03-01T03:43:51;16.85;;;10.23;;
27163;SDS011;14685;50.618;7.024;2023-03-01T03:46:18;13.90;;;9.30;;
27163;SDS011;14685;50.618;7.024;2023-03-01T03:48:45;13.73;;;8.98;;
27163;SDS011;14685;50.618;7.024;2023-03-01T03:51:13;15.70;;;10.13;;
27163;SDS011;14685;50.618;7.024;2023-03-01T03:53:42;16.20;;;8.80;;
27163;SDS011;14685;50.618;7.024;2023-03-01T03:56:10;12.52;;;9.27;;
27163;SDS011;14685;50.618;7.024;2023-03-01T03:58:39;15.52;;;10.32;;
27163;SDS011;14685;50.618;7.024;2023-03-01T04:01:07;13.55;;;9.55;;
27163;SDS011;14685;50.618;7.024;2023-03-01T04:03:34;14.60;;;9.73;;
27163;SDS011;14685;50.618;7.024;2023-03-01T04:06:01;14.90;;;9.45;;
27163;SDS011;14685;50.618;7.024;2023-03-01T04:08:30;13.50;;;10.40;;
27163;SDS011;14685;50.618;7.024;2023-03-01T04:11:01;14.43;;;8.90;;
27163;SDS011;14685;50.618;7.024;2023-03-01T04:13:50;13.50;;;10.10;;
27163;SDS011;14685;50.618;7.024;2023-03-01T04:16:19;13.63;;;9.20;;
27163;SDS011;14685;50.618;7.024;2023-03-01T04:18:48;12.07;;;8.95;;
27163;SDS011;14685;50.618;7.024;2023-03-01T04:21:18;15.27;;;10.23;;
27163;SDS011;14685;50.618;7.024;2023-03-01T04:23:46;15.48;;;10.02;;
27163;SDS011;14685;50.618;7.024;2023-03-01T04:26:15;17.83;;;9.65;;
27163;SDS011;14685;50.618;7.024;2023-03-01T04:28:42;15.30;;;9.38;;
27163;SDS011;14685;50.618;7.024;2023-03-01T04:31:13;14.93;;;9.73;;
27163;SDS011;14685;50.618;7.024;2023-03-01T04:33:45;14.38;;;9.05;;
27163;SDS011;14685;50.618;7.024;2023-03-01T04:36:19;15.02;;;9.48;;
27163;SDS011;14685;50.618;7.024;2023-03-01T04:38:54;16.42;;;10.35;;
27163;SDS011;14685;50.618;7.024;2023-03-01T04:41:25;13.77;;;9.40;;
27163;SDS011;14685;50.618;7.024;2023-03-01T04:44:01;11.57;;;8.93;;
27163;SDS011;14685;50.618;7.024;2023-03-01T04:46:30;16.60;;;9.02;;
27163;SDS011;14685;50.618;7.024;2023-03-01T04:48:58;15.20;;;9.85;;
27163;SDS011;14685;50.618;7.024;2023-03-01T04:51:25;14.32;;;9.82;;
27163;SDS011;14685;50.618;7.024;2023-03-01T04:53:52;14.90;;;9.57;;
27163;SDS011;14685;50.618;7.024;2023-03-01T04:56:19;14.68;;;10.15;;
27163;SDS011;14685;50.618;7.024;2023-03-01T04:58:46;13.52;;;9.93;;
27163;SDS011;14685;50.618;7.024;2023-03-01T05:01:14;15.07;;;9.93;;
27163;SDS011;14685;50.618;7.024;2023-03-01T05:03:50;12.48;;;9.50;;
27163;SDS011;14685;50.618;7.024;2023-03-01T05:06:18;14.40;;;9.63;;
27163;SDS011;14685;50.618;7.024;2023-03-01T05:08:45;15.50;;;10.20;;
27163;SDS011;14685;50.618;7.024;2023-03-01T05:11:12;15.10;;;9.48;;
27163;SDS011;14685;50.618;7.024;2023-03-01T05:13:40;17.58;;;10.00;;
27163;SDS011;14685;50.618;7.024;2023-03-01T05:16:08;12.27;;;9.02;;
27163;SDS011;14685;50.618;7.024;2023-03-01T05:18:38;16.05;;;9.38;;
27163;SDS011;14685;50.618;7.024;2023-03-01T05:21:13;15.95;;;9.90;;
27163;SDS011;14685;50.618;7.024;2023-03-01T05:23:43;16.00;;;10.38;;
27163;SDS011;14685;50.618;7.024;2023-03-01T05:26:11;14.60;;;9.55;;
27163;SDS011;14685;50.618;7.024;2023-03-01T05:28:53;14.55;;;9.82;;
27163;SDS011;14685;50.618;7.024;2023-03-01T05:31:26;14.65;;;9.70;;
27163;SDS011;14685;50.618;7.024;2023-03-01T05:33:53;15.20;;;10.23;;
27163;SDS011;14685;50.618;7.024;2023-03-01T05:36:20;17.23;;;9.90;;
27163;SDS011;14685;50.618;7.024;2023-03-01T05:38:47;19.38;;;10.20;;
27163;SDS011;14685;50.618;7.024;2023-03-01T05:41:14;16.70;;;10.40;;
27163;SDS011;14685;50.618;7.024;2023-03-01T05:43:43;19.75;;;10.52;;
27163;SDS011;14685;50.618;7.024;2023-03-01T05:46:11;11.88;;;9.45;;
27163;SDS011;14685;50.618;7.024;2023-03-01T05:48:39;22.20;;;9.13;;
27163;SDS011;14685;50.618;7.024;2023-03-01T05:51:06;16.13;;;10.80;;
27163;SDS011;14685;50.618;7.024;2023-03-01T05:53:33;15.27;;;10.05;;
27163;SDS011;14685;50.618;7.024;2023-03-01T05:56:02;15.68;;;10.43;;
27163;SDS011;14685;50.618;7.024;2023-03-01T05:58:30;15.25;;;10.35;;
27163;SDS011;14685;50.618;7.024;2023-03-01T06:00:57;16.67;;;10.45;;
27163;SDS011;14685;50.618;7.024;2023-03-01T06:03:24;18.75;;;11.20;;
27163;SDS011;14685;50.618;7.024;2023-03-01T06:05:56;19.63;;;10.18;;
27163;SDS011;14685;50.618;7.024;2023-03-01T06:08:23;14.25;;;9.82;;
27163;SDS011;14685;50.618;7.024;2023-03-01T06:10:53;14.98;;;10.18;;
27163;SDS011;14685;50.618;7.024;2023-03-01T06:13:20;14.60;;;9.95;;
27163;SDS011;14685;50.618;7.024;2023-03-01T06:15:47;17.00;;;11.23;;
27163;SDS011;14685;50.618;7.024;2023-03-01T06:18:14;17.80;;;11.15;;
27163;SDS011;14685;50.618;7.024;2023-03-01T06:20:41;19.55;;;11.35;;
27163;SDS011;14685;50.618;7.024;2023-03-01T06:23:08;15.32;;;10.20;;
27163;SDS011;14685;50.618;7.024;2023-03-01T06:25:35;17.25;;;10.70;;
27163;SDS011;14685;50.618;7.024;2023-03-01T06:28:03;16.40;;;10.98;;
27163;SDS011;14685;50.618;7.024;2023-03-01T06:30:30;15.95;;;10.80;;
27163;SDS011;14685;50.618;7.024;2023-03-01T06:32:58;17.02;;;11.50;;
27163;SDS011;14685;50.618;7.024;2023-03-01T06:35:27;19.00;;;11.02;;
27163;SDS011;14685;50.618;7.024;2023-03-01T06:37:56;17.67;;;11.43;;
27163;SDS011;14685;50.618;7.024;2023-03-01T06:40:27;20.25;;;13.00;;
27163;SDS011;14685;50.618;7.024;2023-03-01T06:42:55;22.17;;;12.57;;
27163;SDS011;14685;50.618;7.024;2023-03-01T06:45:22;21.15;;;13.70;;
27163;SDS011;14685;50.618;7.024;2023-03-01T06:47:50;23.25;;;12.68;;
27163;SDS011;14685;50.618;7.024;2023-03-01T06:50:18;17.60;;;12.60;;
27163;SDS011;14685;50.618;7.024;2023-03-01T06:52:45;21.50;;;11.73;;
27163;SDS011;14685;50.618;7.024;2023-03-01T06:55:12;22.00;;;12.05;;
27163;SDS011;14685;50.618;7.024;2023-03-01T06:57:39;19.27;;;11.98;;
27163;SDS011;14685;50.618;7.024;2023-03-01T07:00:07;17.95;;;11.20;;
27163;SDS011;14685;50.618;7.024;2023-03-01T07:02:34;16.73;;;11.15;;
27163;SDS011;14685;50.618;7.024;2023-03-01T07:05:01;16.30;;;11.63;;
27163;SDS011;14685;50.618;7.024;2023-03-01T07:07:28;27.88;;;17.77;;
27163;SDS011;14685;50.618;7.024;2023-03-01T07:09:55;38.33;;;22.30;;
27163;SDS011;14685;50.618;7.024;2023-03-01T07:12:22;36.85;;;22.52;;
27163;SDS011;14685;50.618;7.024;2023-03-01T07:14:48;40.53;;;22.23;;
27163;SDS011;14685;50.618;7.024;2023-03-01T07:17:15;45.63;;;23.88;;
27163;SDS011;14685;50.618;7.024;2023-03-01T07:19:42;42.17;;;21.70;;
27163;SDS011;14685;50.618;7.024;2023-03-01T07:22:11;43.95;;;24.23;;
27163;SDS011;14685;50.618;7.024;2023-03-01T07:24:38;39.03;;;22.90;;
27163;SDS011;14685;50.618;7.024;2023-03-01T07:27:05;41.30;;;22.73;;
27163;SDS011;14685;50.618;7.024;2023-03-01T07:29:32;35.95;;;19.33;;
27163;SDS011;14685;50.618;7.024;2023-03-01T07:32:03;32.60;;;18.63;;
27163;SDS011;14685;50.618;7.024;2023-03-01T07:34:30;27.27;;;15.45;;
27163;SDS011;14685;50.618;7.024;2023-03-01T07:36:57;26.73;;;14.98;;
27163;SDS011;14685;50.618;7.024;2023-03-01T07:39:24;22.75;;;13.30;;
27163;SDS011;14685;50.618;7.024;2023-03-01T07:41:51;25.17;;;15.18;;
27163;SDS011;14685;50.618;7.024;2023-03-01T07:44:19;22.92;;;14.30;;
27163;SDS011;14685;50.618;7.024;2023-03-01T07:46:46;22.48;;;14.77;;
27163;SDS011;14685;50.618;7.024;2023-03-01T07:49:13;23.13;;;15.57;;
27163;SDS011;14685;50.618;7.024;2023-03-01T07:51:40;19.60;;;13.93;;
27163;SDS011;14685;50.618;7.024;2023-03-01T07:54:08;22.42;;;13.15;;
27163;SDS011;14685;50.618;7.024;2023-03-01T07:56:35;18.15;;;13.20;;
27163;SDS011;14685;50.618;7.024;2023-03-01T07:59:02;20.73;;;13.63;;
27163;SDS011;14685;50.618;7.024;2023-03-01T08:01:29;24.88;;;13.38;;
27163;SDS011;14685;50.618;7.024;2023-03-01T08:03:56;20.27;;;13.65;;
27163;SDS011;14685;50.618;7.024;2023-03-01T08:06:22;25.10;;;14.05;;
27163;SDS011;14685;50.618;7.024;2023-03-01T08:08:49;21.55;;;13.38;;
27163;SDS011;14685;50.618;7.024;2023-03-01T08:11:16;21.83;;;14.80;;
27163;SDS011;14685;50.618;7.024;2023-03-01T08:13:43;19.42;;;13.55;;
27163;SDS011;14685;50.618;7.024;2023-03-01T08:16:11;20.60;;;14.05;;
27163;SDS011;14685;50.618;7.024;2023-03-01T08:18:40;20.50;;;13.50;;
27163;SDS011;14685;50.618;7.024;2023-03-01T08:21:10;22.50;;;14.43;;
27163;SDS011;14685;50.618;7.024;2023-03-01T08:23:41;25.80;;;14.18;;
27163;SDS011;14685;50.618;7.024;2023-03-01T08:26:09;21.95;;;14.68;;
27163;SDS011;14685;50.618;7.024;2023-03-01T08:28:45;19.00;;;13.48;;
27163;SDS011;14685;50.618;7.024;2023-03-01T08:31:15;22.33;;;14.38;;
27163;SDS011;14685;50.618;7.024;2023-03-01T08:33:48;22.60;;;13.93;;
27163;SDS011;14685;50.618;7.024;2023-03-01T08:38:49;23.20;;;13.85;;
27163;SDS011;14685;50.618;7.024;2023-03-01T08:41:16;20.02;;;14.25;;
27163;SDS011;14685;50.618;7.024;2023-03-01T08:43:43;21.25;;;14.40;;
27163;SDS011;14685;50.618;7.024;2023-03-01T08:46:11;21.63;;;14.52;;
27163;SDS011;14685;50.618;7.024;2023-03-01T08:48:40;22.92;;;14.65;;
27163;SDS011;14685;50.618;7.024;2023-03-01T08:51:14;23.45;;;16.08;;
27163;SDS011;14685;50.618;7.024;2023-03-01T08:53:43;24.63;;;16.27;;
27163;SDS011;14685;50.618;7.024;2023-03-01T08:56:11;25.60;;;16.33;;
27163;SDS011;14685;50.618;7.024;2023-03-01T08:58:39;24.88;;;17.02;;
27163;SDS011;14685;50.618;7.024;2023-03-01T09:01:10;21.10;;;15.93;;
27163;SDS011;14685;50.618;7.024;2023-03-01T09:03:37;22.90;;;15.48;;
27163;SDS011;14685;50.618;7.024;2023-03-01T09:06:05;23.90;;;16.05;;
27163;SDS011;14685;50.618;7.024;2023-03-01T09:08:34;21.25;;;14.98;;
27163;SDS011;14685;50.618;7.024;2023-03-01T09:11:06;25.00;;;16.05;;
27163;SDS011;14685;50.618;7.024;2023-03-01T09:13:38;22.30;;;14.20;;
27163;SDS011;14685;50.618;7.024;2023-03-01T09:16:10;24.92;;;16.05;;
27163;SDS011;14685;50.618;7.024;2023-03-01T09:18:39;23.17;;;15.65;;
27163;SDS011;14685;50.618;7.024;2023-03-01T09:21:09;23.30;;;16.40;;
27163;SDS011;14685;50.618;7.024;2023-03-01T09:23:40;23.30;;;15.07;;
27163;SDS011;14685;50.618;7.024;2023-03-01T09:26:10;28.80;;;16.67;;
27163;SDS011;14685;50.618;7.024;2023-03-01T09:28:43;26.48;;;15.55;;
27163;SDS011;14685;50.618;7.024;2023-03-01T09:31:10;20.27;;;14.75;;
27163;SDS011;14685;50.618;7.024;2023-03-01T09:33:41;25.33;;;15.68;;
27163;SDS011;14685;50.618;7.024;2023-03-01T09:36:15;24.63;;;15.65;;
27163;SDS011;14685;50.618;7.024;2023-03-01T09:38:44;25.30;;;16.05;;
27163;SDS011;14685;50.618;7.024;2023-03-01T09:46:53;24.45;;;14.48;;
27163;SDS011;14685;50.618;7.024;2023-03-01T09:49:24;26.88;;;17.02;;
27163;SDS011;14685;50.618;7.024;2023-03-01T09:52:11;22.10;;;15.88;;
27163;SDS011;14685;50.618;7.024;2023-03-01T09:55:12;24.30;;;16.50;;
27163;SDS011;14685;50.618;7.024;2023-03-01T09:57:54;24.98;;;15.52;;
27163;SDS011;14685;50.618;7.024;2023-03-01T10:00:29;24.85;;;15.40;;
27163;SDS011;14685;50.618;7.024;2023-03-01T10:02:59;23.58;;;15.35;;
27163;SDS011;14685;50.618;7.024;2023-03-01T10:05:35;23.00;;;16.10;;
27163;SDS011;14685;50.618;7.024;2023-03-01T10:08:23;26.65;;;15.88;;
27163;SDS011;14685;50.618;7.024;2023-03-01T10:10:57;24.73;;;16.05;;
27163;SDS011;14685;50.618;7.024;2023-03-01T10:16:14;23.90;;;15.68;;
27163;SDS011;14685;50.618;7.024;2023-03-01T10:18:45;25.45;;;16.65;;
27163;SDS011;14685;50.618;7.024;2023-03-01T10:21:19;25.90;;;15.98;;
27163;SDS011;14685;50.618;7.024;2023-03-01T10:23:49;22.58;;;16.20;;
27163;SDS011;14685;50.618;7.024;2023-03-01T10:29:07;23.67;;;15.38;;
27163;SDS011;14685;50.618;7.024;2023-03-01T10:31:37;22.42;;;16.20;;
27163;SDS011;14685;50.618;7.024;2023-03-01T10:34:09;25.02;;;15.95;;
27163;SDS011;14685;50.618;7.024;2023-03-01T10:36:48;23.10;;;16.10;;
27163;SDS011;14685;50.618;7.024;2023-03-01T10:39:18;25.08;;;16.35;;
27163;SDS011;14685;50.618;7.024;2023-03-01T10:41:53;22.42;;;15.68;;
27163;SDS011;14685;50.618;7.024;2023-03-01T10:47:25;23.17;;;15.00;;
27163;SDS011;14685;50.618;7.024;2023-03-01T10:50:01;43.58;;;24.08;;
27163;SDS011;14685;50.618;7.024;2023-03-01T10:52:37;22.23;;;15.40;;
27163;SDS011;14685;50.618;7.024;2023-03-01T10:57:39;22.73;;;16.27;;
27163;SDS011;14685;50.618;7.024;2023-03-01T11:00:19;21.73;;;14.98;;
27163;SDS011;14685;50.618;7.024;2023-03-01T11:03:02;20.75;;;14.35;;
27163;SDS011;14685;50.618;7.024;2023-03-01T11:05:36;20.25;;;14.18;;
27163;SDS011;14685;50.618;7.024;2023-03-01T11:08:03;22.15;;;14.98;;
27163;SDS011;14685;50.618;7.024;2023-03-01T11:10:34;27.42;;;15.85;;
27163;SDS011;14685;50.618;7.024;2023-03-01T11:13:06;22.15;;;16.05;;
27163;SDS011;14685;50.618;7.024;2023-03-01T11:15:41;25.05;;;16.05;;
27163;SDS011;14685;50.618;7.024;2023-03-01T11:18:22;22.10;;;16.27;;
27163;SDS011;14685;50.618;7.024;2023-03-01T11:21:06;24.08;;;17.20;;
27163;SDS011;14685;50.618;7.024;2023-03-01T11:23:35;23.60;;;15.48;;
27163;SDS011;14685;50.618;7.024;2023-03-01T11:26:07;23.20;;;15.80;;
27163;SDS011;14685;50.618;7.024;2023-03-01T11:28:38;23.55;;;15.95;;
27163;SDS011;14685;50.618;7.024;2023-03-01T11:31:08;22.38;;;16.08;;
27163;SDS011;14685;50.618;7.024;2023-03-01T11:36:32;23.90;;;17.08;;
27163;SDS011;14685;50.618;7.024;2023-03-01T11:39:05;23.75;;;16.45;;
27163;SDS011;14685;50.618;7.024;2023-03-01T11:41:52;21.65;;;16.48;;
27163;SDS011;14685;50.618;7.024;2023-03-01T11:44:44;22.02;;;15.52;;
27163;SDS011;14685;50.618;7.024;2023-03-01T11:55:45;22.55;;;15.95;;
27163;SDS011;14685;50.618;7.024;2023-03-01T11:58:58;23.55;;;16.30;;
27163;SDS011;14685;50.618;7.024;2023-03-01T12:04:28;22.63;;;14.23;;
27163;SDS011;14685;50.618;7.024;2023-03-01T12:07:05;23.42;;;13.98;;
27163;SDS011;14685;50.618;7.024;2023-03-01T12:12:48;23.70;;;13.80;;
27163;SDS011;14685;50.618;7.024;2023-03-01T12:18:46;22.13;;;14.65;;
27163;SDS011;14685;50.618;7.024;2023-03-01T12:21:39;18.13;;;13.25;;
27163;SDS011;14685;50.618;7.024;2023-03-01T12:35:31;22.10;;;14.57;;
27163;SDS011;14685;50.618;7.024;2023-03-01T12:38:16;21.23;;;13.50;;
27163;SDS011;14685;50.618;7.024;2023-03-01T12:46:51;18.25;;;12.43;;
27163;SDS011;14685;50.618;7.024;2023-03-01T12:49:31;16.48;;;11.70;;
27163;SDS011;14685;50.618;7.024;2023-03-01T12:55:08;17.15;;;9.98;;
27163;SDS011;14685;50.618;7.024;2023-03-01T12:58:00;22.50;;;9.98;;
27163;SDS011;14685;50.618;7.024;2023-03-01T13:00:51;17.55;;;10.40;;
27163;SDS011;14685;50.618;7.024;2023-03-01T13:06:32;15.73;;;10.30;;
27163;SDS011;14685;50.618;7.024;2023-03-01T13:12:41;14.95;;;9.68;;
27163;SDS011;14685;50.618;7.024;2023-03-01T13:17:51;13.50;;;9.40;;
27163;SDS011;14685;50.618;7.024;2023-03-01T13:20:29;14.98;;;9.98;;
27163;SDS011;14685;50.618;7.024;2023-03-01T13:26:00;15.07;;;9.57;;
27163;SDS011;14685;50.618;7.024;2023-03-01T13:31:07;14.68;;;8.95;;
27163;SDS011;14685;50.618;7.024;2023-03-01T13:33:45;15.95;;;9.43;;
27163;SDS011;14685;50.618;7.024;2023-03-01T13:44:16;16.58;;;9.27;;
27163;SDS011;14685;50.618;7.024;2023-03-01T13:47:16;13.15;;;9.15;;
27163;SDS011;14685;50.618;7.024;2023-03-01T13:49:48;13.70;;;9.13;;
27163;SDS011;14685;50.618;7.024;2023-03-01T13:52:29;14.32;;;9.93;;
27163;SDS011;14685;50.618;7.024;2023-03-01T13:55:27;14.20;;;9.47;;
27163;SDS011;14685;50.618;7.024;2023-03-01T13:58:00;13.13;;;9.25;;
27163;SDS011;14685;50.618;7.024;2023-03-01T14:00:37;12.10;;;8.65;;
27163;SDS011;14685;50.618;7.024;2023-03-01T14:03:09;17.60;;;10.13;;
27163;SDS011;14685;50.618;7.024;2023-03-01T14:05:37;15.32;;;10.85;;
27163;SDS011;14685;50.618;7.024;2023-03-01T14:08:28;16.80;;;9.43;;
27163;SDS011;14685;50.618;7.024;2023-03-01T14:11:00;14.35;;;9.90;;
27163;SDS011;14685;50.618;7.024;2023-03-01T14:19:21;14.57;;;9.35;;
27163;SDS011;14685;50.618;7.024;2023-03-01T14:24:56;13.07;;;8.02;;
27163;SDS011;14685;50.618;7.024;2023-03-01T14:27:34;14.35;;;9.93;;
27163;SDS011;14685;50.618;7.024;2023-03-01T14:30:17;14.07;;;10.18;;
27163;SDS011;14685;50.618;7.024;2023-03-01T14:32:55;12.07;;;8.82;;
27163;SDS011;14685;50.618;7.024;2023-03-01T14:35:29;12.70;;;9.48;;
27163;SDS011;14685;50.618;7.024;2023-03-01T14:37:58;15.73;;;9.10;;
27163;SDS011;14685;50.618;7.024;2023-03-01T14:42:53;14.73;;;9.55;;
27163;SDS011;14685;50.618;7.024;2023-03-01T14:45:25;17.02;;;9.48;;
27163;SDS011;14685;50.618;7.024;2023-03-01T14:47:54;15.13;;;8.85;;
27163;SDS011;14685;50.618;7.024;2023-03-01T14:50:26;13.98;;;8.75;;
27163;SDS011;14685;50.618;7.024;2023-03-01T14:52:57;13.02;;;8.07;;
27163;SDS011;14685;50.618;7.024;2023-03-01T14:57:57;11.20;;;8.18;;
27163;SDS011;14685;50.618;7.024;2023-03-01T15:00:29;11.77;;;7.80;;
27163;SDS011;14685;50.618;7.024;2023-03-01T15:03:00;13.63;;;7.70;;
27163;SDS011;14685;50.618;7.024;2023-03-01T15:05:47;10.00;;;7.22;;
27163;SDS011;14685;50.618;7.024;2023-03-01T15:08:17;13.45;;;7.80;;
27163;SDS011;14685;50.618;7.024;2023-03-01T15:10:58;13.35;;;7.85;;
27163;SDS011;14685;50.618;7.024;2023-03-01T15:13:32;10.65;;;7.22;;
27163;SDS011;14685;50.618;7.024;2023-03-01T15:16:01;10.32;;;6.53;;
27163;SDS011;14685;50.618;7.024;2023-03-01T15:18:35;12.73;;;7.55;;
27163;SDS011;14685;50.618;7.024;2023-03-01T15:21:15;9.13;;;6.47;;
27163;SDS011;14685;50.618;7.024;2023-03-01T15:23:47;10.70;;;7.25;;
27163;SDS011;14685;50.618;7.024;2023-03-01T15:26:25;12.10;;;7.45;;
27163;SDS011;14685;50.618;7.024;2023-03-01T15:29:10;10.55;;;7.85;;
27163;SDS011;14685;50.618;7.024;2023-03-01T15:31:47;10.85;;;7.43;;
27163;SDS011;14685;50.618;7.024;2023-03-01T15:34:34;8.93;;;7.03;;
27163;SDS011;14685;50.618;7.024;2023-03-01T15:37:04;10.68;;;6.78;;
27163;SDS011;14685;50.618;7.024;2023-03-01T15:39:43;10.05;;;6.95;;
27163;SDS011;14685;50.618;7.024;2023-03-01T15:47:47;9.93;;;6.45;;
27163;SDS011;14685;50.618;7.024;2023-03-01T15:50:29;11.45;;;6.47;;
27163;SDS011;14685;50.618;7.024;2023-03-01T15:52:59;10.02;;;6.53;;
27163;SDS011;14685;50.618;7.024;2023-03-01T15:55:29;9.20;;;6.47;;
27163;SDS011;14685;50.618;7.024;2023-03-01T15:58:00;9.20;;;6.15;;
27163;SDS011;14685;50.618;7.024;2023-03-01T16:00:33;9.70;;;6.60;;
27163;SDS011;14685;50.618;7.024;2023-03-01T16:03:00;16.58;;;8.57;;
27163;SDS011;14685;50.618;7.024;2023-03-01T16:05:28;17.35;;;8.68;;
27163;SDS011;14685;50.618;7.024;2023-03-01T16:07:58;13.93;;;8.57;;
27163;SDS011;14685;50.618;7.024;2023-03-01T16:10:25;9.02;;;6.50;;
27163;SDS011;14685;50.618;7.024;2023-03-01T16:12:52;15.23;;;9.75;;
27163;SDS011;14685;50.618;7.024;2023-03-01T16:15:31;17.63;;;9.32;;
27163;SDS011;14685;50.618;7.024;2023-03-01T16:18:01;9.63;;;6.38;;
27163;SDS011;14685;50.618;7.024;2023-03-01T16:20:28;14.73;;;9.23;;
27163;SDS011;14685;50.618;7.024;2023-03-01T16:22:59;15.35;;;9.65;;
27163;SDS011;14685;50.618;7.024;2023-03-01T16:25:28;15.23;;;9.15;;
27163;SDS011;14685;50.618;7.024;2023-03-01T16:27:56;14.70;;;9.82;;
27163;SDS011;14685;50.618;7.024;2023-03-01T16:30:24;13.18;;;9.90;;
27163;SDS011;14685;50.618;7.024;2023-03-01T16:32:51;19.20;;;9.27;;
27163;SDS011;14685;50.618;7.024;2023-03-01T16:35:19;13.85;;;9.50;;
27163;SDS011;14685;50.618;7.024;2023-03-01T16:37:48;17.85;;;10.02;;
27163;SDS011;14685;50.618;7.024;2023-03-01T16:40:16;17.35;;;9.30;;